Date,TemperatureHighF,TemperatureAvgF,TemperatureLowF,DewpointHighF,DewpointAvgF,DewpointLowF,HumidityHigh,HumidityAvg,HumidityLow,PressureMaxIn,PressureMinIn,WindSpeedMaxMPH,WindSpeedAvgMPH,GustSpeedMaxMPH,PrecipitationSumIn
2013-1-1,21,5,-7,5,-8,-16,79,58,29,29.84,29.71,13,3,16,0.00
2013-1-2,23,8,-3,-2,-12,-17,59,42,23,29.91,29.82,12,4,19,0.00
2013-1-3,24,6,-5,-4,-14,-22,67,41,17,29.96,29.89,8,2,8,0.00
2013-1-4,40,18,5,2,-8,-20,49,32,13,29.95,29.83,6,2,8,0.00
2013-1-5,48,25,15,-6,-14,-26,27,17,10,30.04,29.85,25,8,28,0.00
2013-1-6,41,24,6,-9,-16,-22,33,17,10,30.04,29.85,13,5,17,0.00
2013-1-7,36,24,10,0,-12,-21,35,20,12,29.88,29.76,18,6,18,0.00
2013-1-8,36,27,17,9,-3,-26,56,29,10,30.03,29.75,14,6,15,0.00
2013-1-9,46,26,7,8,0,-11,55,34,19,30.11,29.92,14,4,18,0.00
2013-1-10,41,25,12,7,-4,-13,49,30,11,29.91,29.48,18,5,27,0.00
2013-1-11,24,12,-3,18,-3,-20,86,52,22,29.54,29.28,34,10,41,0.00
2013-1-12,15,0,-11,-5,-21,-31,60,37,14,29.59,29.49,15,5,18,0.00
2013-1-13,9,-2,-11,-12,-17,-24,67,48,28,29.65,29.57,11,4,14,0.00
2013-1-14,10,-5,-13,2,-14,-21,73,62,45,29.69,29.61,8,3,9,0.00
2013-1-15,25,8,-12,3,-9,-24,61,47,29,29.91,29.67,18,5,24,0.00
2013-1-16,43,22,10,15,7,-3,66,53,30,30.08,29.91,17,4,17,0.00
2013-1-17,38,23,9,17,8,4,85,56,31,30.16,30.05,16,5,17,0.00
2013-1-18,43,30,19,4,-12,-22,46,18,10,30.05,29.96,24,14,31,0.00
2013-1-19,49,32,23,-4,-12,-22,22,14,10,30.09,29.98,21,8,25,0.00
2013-1-20,47,31,20,-5,-15,-25,25,13,10,30.04,29.95,21,7,26,0.00
2013-1-21,44,31,20,1,-8,-24,28,18,10,30.00,29.95,28,12,31,0.00
2013-1-22,51,36,23,-3,-16,-25,10,10,10,30.08,29.98,21,8,24,0.00
2013-1-23,55,40,29,0,-12,-21,10,10,10,30.10,30.04,26,10,27,0.00
2013-1-24,49,37,27,20,1,-20,69,27,10,30.05,29.91,24,9,32,0.00
2013-1-25,45,34,27,25,21,19,74,61,41,30.01,29.93,16,7,21,0.00
2013-1-26,47,33,28,31,23,15,97,69,38,29.93,29.66,14,6,19,0.00
2013-1-27,42,33,28,29,20,10,93,63,30,29.71,29.65,27,9,33,0.01
2013-1-28,40,26,15,29,18,6,91,72,51,29.67,29.50,21,6,21,0.05
2013-1-29,19,10,-1,7,-7,-18,81,50,23,29.64,29.45,21,8,24,0.00
2013-1-30,27,13,-1,7,-4,-17,68,47,33,29.76,29.61,34,14,36,0.01
2013-1-31,35,24,16,10,3,-2,71,43,22,29.93,29.75,27,13,36,0.00
2013-2-1,38,26,17,8,3,-2,54,39,24,29.96,29.86,26,10,28,0.00
2013-2-2,46,32,20,-2,-9,-20,30,17,10,30.06,29.95,26,10,29,0.00
2013-2-3,40,30,23,-3,-12,-21,30,16,10,30.03,29.79,18,8,24,0.00
2013-2-4,46,29,15,2,-11,-18,29,18,10,29.84,29.77,24,10,27,0.00
2013-2-5,54,34,17,7,3,-3,46,28,13,29.91,29.80,20,6,27,0.00
2013-2-6,44,32,20,14,6,-1,71,35,17,29.83,29.72,18,7,21,0.00
2013-2-7,44,26,9,16,-1,-18,77,39,10,29.92,29.83,12,4,21,0.00
2013-2-8,38,28,16,16,7,-4,65,42,23,29.87,29.60,22,8,31,0.00
2013-2-9,33,23,14,18,5,-5,70,46,30,29.60,29.38,18,8,24,0.00
2013-2-10,28,16,8,7,-5,-14,79,41,20,29.67,29.44,27,8,27,0.00
2013-2-11,25,10,1,9,1,-8,79,67,44,29.73,29.65,11,5,13,0.00
2013-2-12,33,12,-3,6,-6,-11,74,46,21,29.79,29.73,17,5,18,0.00
2013-2-13,36,22,8,7,0,-5,58,40,25,29.83,29.77,22,10,28,0.00
2013-2-14,32,22,14,9,-2,-11,51,35,18,29.90,29.79,24,9,27,0.00
2013-2-15,27,18,11,2,-4,-10,64,38,21,30.00,29.89,25,13,35,0.00
2013-2-16,43,30,19,0,-3,-10,38,25,10,30.02,29.87,26,12,32,0.00
2013-2-17,42,29,18,10,-11,-21,65,20,10,29.87,29.57,24,8,27,0.00
2013-2-18,32,19,7,10,-11,-27,78,31,10,29.82,29.57,21,10,23,0.00
2013-2-19,41,22,3,-6,-14,-20,35,21,10,29.82,29.60,14,4,19,0.00
2013-2-20,36,21,14,17,6,-7,89,55,31,29.60,29.42,9,4,17,0.00
2013-2-21,32,18,10,19,10,0,88,71,49,29.61,29.42,15,4,16,0.00
2013-2-22,29,14,3,11,1,-7,78,58,31,29.68,29.60,10,4,13,0.00
2013-2-23,34,19,4,16,3,-9,83,52,30,29.67,29.50,27,10,27,0.00
2013-2-24,19,13,2,14,7,-4,86,76,55,29.74,29.47,21,6,24,0.00
2013-2-25,36,15,-1,13,-2,-11,84,51,18,29.76,29.64,11,4,13,0.00
2013-2-26,25,16,3,10,-1,-10,63,47,38,29.79,29.57,16,6,17,0.00
2013-2-27,29,12,-1,4,-11,-20,64,36,16,29.91,29.80,13,5,15,0.00
2013-2-28,31,17,1,2,-9,-20,54,33,18,29.98,29.90,21,6,27,0.00
2013-3-1,37,26,15,12,6,-2,59,44,31,30.08,29.97,24,10,26,0.00
2013-3-2,51,33,18,20,10,4,67,40,19,30.10,29.95,12,4,18,0.00
2013-3-3,53,36,28,18,9,-2,65,34,12,29.94,29.65,29,12,36,0.00
2013-3-4,40,26,8,28,13,-11,94,60,29,29.86,29.54,24,9,30,0.00
2013-3-5,50,29,8,-5,-14,-24,40,16,10,29.96,29.84,17,8,22,0.00
2013-3-6,51,37,22,4,-2,-11,28,20,12,29.91,29.69,18,6,18,0.00
2013-3-7,53,40,27,5,-2,-12,30,18,10,29.84,29.70,16,6,19,0.00
2013-3-8,45,32,23,27,12,0,95,48,20,29.80,29.52,20,4,24,0.00
2013-3-9,33,22,9,25,16,1,93,77,53,29.76,29.49,17,6,19,0.00
2013-3-10,34,21,4,10,3,-3,76,47,27,29.88,29.76,26,8,27,0.00
2013-3-11,44,31,20,11,5,-2,49,33,21,29.87,29.74,26,13,30,0.00
2013-3-12,45,34,24,12,9,7,56,37,21,29.98,29.83,23,12,27,0.00
2013-3-13,51,37,27,14,10,5,49,33,20,30.07,29.98,24,12,27,0.00
2013-3-14,58,43,32,15,5,-9,43,23,10,30.13,29.98,17,8,20,0.00
2013-3-15,59,45,35,12,6,-3,34,22,10,30.04,29.79,20,9,32,0.00
2013-3-16,47,34,28,31,21,8,85,59,29,29.84,29.69,23,6,23,0.01
2013-3-17,41,29,22,27,19,10,89,68,32,29.73,29.49,25,9,36,0.01
2013-3-18,33,25,15,12,6,-1,74,45,26,29.75,29.65,30,11,36,0.00
2013-3-19,42,30,18,6,-9,-26,48,20,10,29.94,29.75,27,10,37,0.00
2013-3-20,47,32,16,16,-5,-28,55,23,10,29.95,29.69,21,10,30,0.00
2013-3-21,43,31,24,30,15,-3,82,54,29,29.69,29.49,23,10,26,0.01
2013-3-22,37,26,18,14,-3,-16,81,31,10,29.63,29.44,26,9,31,0.00
2013-3-23,18,10,1,14,3,-5,85,76,60,29.76,29.51,21,7,21,0.00
2013-3-24,23,9,-5,8,-6,-12,82,55,26,29.80,29.69,21,6,24,0.00
2013-3-25,28,13,-2,-5,-13,-23,54,31,15,29.87,29.79,9,4,11,0.00
2013-3-26,49,31,13,11,2,-10,45,31,13,29.87,29.69,25,9,34,0.00
2013-3-27,51,38,27,18,8,-2,62,32,12,29.90,29.78,15,7,20,0.00
2013-3-28,51,36,23,24,17,10,73,50,20,29.95,29.85,14,5,20,0.00
2013-3-29,52,39,27,22,17,10,72,43,21,29.99,29.90,17,6,26,0.00
2013-3-30,54,40,27,24,15,4,85,42,14,29.98,29.84,23,8,27,0.00
2013-3-31,57,40,23,24,8,-10,85,38,10,29.95,29.76,17,7,21,0.00
2013-4-1,55,37,24,23,15,3,79,43,12,29.91,29.70,14,5,21,0.00
2013-4-2,43,30,25,28,24,21,94,79,47,29.82,29.75,19,4,22,0.00
2013-4-3,50,36,21,38,18,7,99,56,22,29.96,29.82,22,5,22,0.12
2013-4-4,56,41,27,18,14,5,51,35,13,30.01,28.80,19,8,19,0.00
2013-4-5,55,44,31,31,18,4,94,45,15,29.88,29.73,24,10,24,0.00
2013-4-6,53,39,26,30,15,1,94,45,13,29.83,29.72,24,9,24,0.01
2013-4-7,49,38,29,24,16,9,69,43,22,29.78,29.62,23,9,35,0.00
2013-4-8,52,38,26,31,19,2,94,55,13,29.68,29.39,30,8,30,0.00
2013-4-9,26,15,4,24,9,0,94,77,53,29.67,29.49,14,7,18,0.01
2013-4-10,36,18,-2,17,4,-7,82,57,34,29.71,29.57,22,7,24,0.02
2013-4-11,43,32,18,20,11,-3,63,41,24,29.73,29.62,32,12,36,0.00
2013-4-12,48,34,24,21,12,1,78,43,15,29.79,29.70,27,9,30,0.00
2013-4-13,53,39,26,29,11,2,87,35,15,29.80,29.46,33,14,35,0.00
2013-4-14,36,31,25,31,16,4,97,59,28,29.59,29.44,28,10,38,0.00
2013-4-15,48,30,21,30,21,9,89,69,39,29.66,29.47,17,7,27,0.01
2013-4-16,45,31,18,23,18,16,91,64,36,29.67,29.47,22,12,26,0.00
2013-4-17,33,22,6,26,17,2,96,82,55,29.72,29.52,24,8,24,0.01
2013-4-18,26,15,1,20,-1,-8,85,54,27,29.88,29.69,27,9,30,0.00
2013-4-19,46,29,15,14,5,-5,54,36,24,29.90,29.73,27,12,31,0.00
2013-4-20,41,31,23,27,17,11,73,57,35,29.86,29.76,12,5,15,0.01
2013-4-21,51,38,25,20,10,-6,73,37,10,29.91,29.78,17,8,27,0.00
2013-4-22,50,37,16,28,18,6,87,51,18,29.84,29.68,21,10,27,0.00
2013-4-23,33,21,12,21,8,-6,87,63,27,29.87,29.74,19,6,26,0.04
2013-4-24,44,28,12,8,0,-9,55,33,11,29.96,29.85,20,7,27,0.00
2013-4-25,56,39,19,20,11,3,69,36,12,29.96,29.76,16,6,27,0.00
2013-4-26,57,42,27,20,10,-4,55,32,10,30.07,29.86,27,6,27,0.00
2013-4-27,59,45,27,27,11,-2,77,34,10,30.06,29.92,14,6,28,0.00
2013-4-28,66,51,35,11,6,3,30,17,10,29.99,29.81,22,10,24,0.00
2013-4-29,66,53,37,20,9,-3,48,20,10,29.88,29.68,21,10,28,0.00
2013-4-30,65,54,42,25,8,-1,50,17,10,29.73,29.64,25,10,34,0.00
2013-5-1,41,27,14,30,22,11,94,83,55,30.10,29.70,24,8,24,0.07
2013-5-2,42,23,9,23,10,5,89,60,27,30.20,30.06,10,4,11,0.05
2013-5-3,55,37,17,16,10,5,65,37,15,30.10,29.83,12,5,18,0.00
2013-5-4,50,36,24,29,18,11,93,51,23,29.98,29.83,21,6,21,0.00
2013-5-5,57,38,23,26,19,12,78,50,19,29.98,29.85,17,5,22,0.01
2013-5-6,47,35,27,37,27,19,99,71,59,29.93,29.82,13,4,13,0.12
2013-5-7,54,40,29,35,29,20,99,69,29,29.88,29.79,14,4,18,0.11
2013-5-8,48,35,30,35,30,27,99,86,54,29.88,29.81,11,3,14,0.45
2013-5-9,49,34,27,37,30,26,99,85,55,30.00,29.88,11,2,14,0.15
2013-5-10,50,28,17,32,23,15,99,84,47,30.03,29.99,6,2,8,0.00
2013-5-11,60,44,30,31,25,17,84,51,21,30.17,30.03,26,5,26,0.00
2013-5-12,65,51,34,32,24,16,71,39,17,30.12,30.01,24,8,24,0.00
2013-5-13,69,53,40,32,25,20,52,36,16,30.14,30.03,14,5,24,0.00
2013-5-14,68,52,39,38,32,24,74,49,19,30.05,29.93,20,6,23,0.00
2013-5-15,65,48,39,44,36,30,99,66,27,29.97,29.85,27,7,27,0.05
2013-5-16,69,53,34,40,28,14,99,48,14,29.90,29.78,24,7,24,0.01
2013-5-17,70,57,41,23,12,-2,46,19,10,29.91,29.75,19,6,24,0.00
2013-5-18,61,48,39,31,15,6,57,28,15,29.88,29.75,19,7,21,0.00
2013-5-19,56,42,32,24,18,9,65,41,16,29.81,29.68,22,10,22,0.00
2013-5-20,50,41,32,28,21,17,62,45,28,29.90,29.77,30,10,30,0.01
2013-5-21,60,46,33,22,16,6,52,33,12,29.91,29.77,27,11,27,0.00
2013-5-22,68,49,32,36,22,8,82,41,10,29.92,29.75,23,6,23,0.02
2013-5-23,70,51,36,39,32,8,92,57,10,29.95,29.78,24,8,24,0.00
2013-5-24,72,55,37,41,22,1,99,41,10,29.96,29.83,24,7,24,0.00
2013-5-25,77,55,37,16,8,0,29,16,10,29.97,29.87,20,6,24,0.00
2013-5-26,74,61,42,14,10,5,28,14,10,29.96,29.79,13,6,21,0.00
2013-6-19,81,62,39,42,23,-2,86,32,10,29.93,29.73,21,6,21,0.00
2013-6-20,80,65,50,18,8,-4,15,10,10,29.93,29.78,21,7,21,0.00
2013-6-21,81,65,47,19,10,3,18,12,10,29.95,29.80,27,6,27,0.00
2013-6-22,77,64,50,16,10,0,17,12,10,29.93,29.77,26,7,26,0.00
2013-6-23,76,60,40,34,16,4,53,20,10,29.96,29.80,30,6,30,0.00
2013-6-24,76,60,41,43,20,2,77,29,10,29.92,29.79,21,7,21,0.00
2013-6-25,78,61,51,24,13,6,31,15,10,30.04,29.88,23,7,25,0.00
2013-6-26,86,69,46,32,24,17,40,21,10,30.10,29.99,19,5,20,0.00
2013-6-27,62,57,53,28,26,24,34,31,27,30.15,30.10,5,2,5,0.00
2013-7-7,78,61,48,53,46,39,99,62,28,30.08,29.96,18,5,18,0.12
2013-7-8,52,48,45,51,47,44,99,99,99,30.12,30.07,23,4,23,0.25
2013-7-13,65,58,53,53,51,50,92,78,64,30.10,30.04,9,4,13,0.19
2013-7-14,76,58,47,55,50,44,99,80,36,30.12,30.03,21,5,26,0.77
2013-7-15,68,53,46,58,51,46,99,93,67,30.11,30.02,14,4,17,0.08
2013-7-16,71,56,42,50,45,41,99,73,40,30.14,30.02,16,5,16,0.01
2013-7-17,78,60,44,52,46,39,99,63,33,30.15,30.03,12,6,16,0.00
2013-7-18,70,56,51,50,45,43,78,68,50,30.13,30.09,14,7,18,0.00
2013-7-24,73,60,49,54,47,40,89,64,46,30.12,30.04,31,5,31,0.18
2013-7-25,76,57,47,52,47,38,99,72,32,30.16,30.03,26,7,26,0.02
2013-7-26,76,58,42,54,46,37,99,68,28,30.16,30.07,21,5,21,0.00
2013-7-27,76,58,49,51,46,36,99,70,29,30.14,29.95,24,7,24,0.11
2013-7-28,70,56,48,57,50,44,99,82,46,30.00,29.89,14,5,14,0.13
2013-7-29,73,59,47,51,46,39,99,66,32,30.10,29.94,22,8,22,0.01
2013-7-30,76,58,44,44,39,35,82,54,26,30.18,30.09,21,6,21,0.00
2013-7-31,80,63,45,47,38,31,75,44,19,30.22,30.07,9,4,15,0.00
2013-8-1,69,58,48,56,46,42,99,66,40,30.13,30.01,24,7,24,0.00
2013-8-2,53,52,52,46,46,44,80,77,73,30.02,30.01,15,9,15,0.00
2013-10-19,53,37,24,14,7,-3,51,30,14,29.90,29.79,23,10,23,0.00
2013-10-20,54,38,26,24,10,5,86,34,17,29.86,29.69,27,9,27,0.00
2013-10-21,51,34,18,30,15,4,96,53,16,29.98,29.84,24,6,24,0.06
2013-10-22,63,41,25,24,15,10,65,38,14,30.01,29.90,12,5,12,0.00
2013-10-23,64,45,29,19,10,-6,49,28,10,30.00,29.87,12,5,12,0.00
2013-10-24,62,43,26,25,15,5,67,38,12,30.02,29.88,18,4,18,0.00
2013-10-25,61,43,32,32,21,13,86,44,18,30.01,29.90,17,7,17,0.08
2013-10-26,58,42,27,30,21,13,82,48,18,30.08,29.96,11,4,17,0.00
2013-10-27,57,42,29,20,14,9,56,35,15,29.99,29.73,19,7,22,0.00
2013-11-12,60,37,17,18,8,-12,73,35,10,30.24,30.12,15,5,15,0.00
2013-11-13,54,40,29,10,1,-7,38,21,10,30.14,29.86,16,8,16,0.00
2013-11-14,52,38,26,20,4,-14,62,29,10,29.87,29.65,14,6,14,0.00
2013-11-15,49,34,27,27,14,5,96,49,19,29.65,29.44,27,8,27,0.00
2013-11-16,38,29,24,26,18,8,99,68,34,29.44,29.35,46,11,46,0.06
2013-11-17,42,29,21,23,16,10,98,61,33,29.86,29.41,31,11,31,0.01
2013-11-18,55,31,21,13,7,2,51,38,16,29.94,29.83,19,9,19,0.00
2013-11-19,49,35,28,20,14,9,66,43,27,29.85,29.60,23,10,26,0.00
2013-11-20,48,35,25,26,18,12,91,52,24,29.71,29.63,13,6,16,0.00
2013-11-21,40,26,11,31,24,9,99,92,69,29.96,29.69,14,5,17,0.02
2013-11-22,25,17,10,20,14,7,94,90,81,30.08,29.97,4,1,7,0.00
2013-11-23,32,20,16,24,16,14,94,85,64,30.10,29.94,3,0,4,0.00
2013-11-24,33,23,13,27,21,11,99,91,72,29.93,29.69,21,5,21,0.00
2013-11-25,32,23,15,23,13,5,92,67,51,29.96,29.72,17,5,22,0.00
2013-11-26,42,24,14,25,13,7,90,66,39,30.04,29.96,15,5,19,0.00
2013-11-27,45,28,14,17,10,3,71,50,23,29.98,29.85,19,5,24,0.00
2013-11-28,53,27,15,22,11,4,78,53,23,29.95,29.89,11,3,17,0.01
2013-11-29,43,31,23,12,9,5,56,41,22,29.97,29.91,17,8,21,0.00
2013-11-30,45,30,21,11,5,0,55,36,20,29.98,29.91,15,8,18,0.00
2013-12-1,45,31,20,16,6,1,52,36,22,29.93,29.78,19,10,22,0.00
2013-12-2,47,35,29,20,14,10,58,43,28,29.79,29.56,28,12,34,0.00
2013-12-3,33,30,26,28,18,9,91,65,37,29.56,29.31,24,9,25,0.00
2013-12-4,27,17,2,25,14,-7,99,89,64,29.51,29.22,24,9,27,0.00
2013-12-5,25,4,-12,2,-8,-21,74,57,33,29.53,29.45,14,4,17,0.00
2013-12-6,20,4,-5,-4,-10,-15,75,53,28,29.66,29.51,17,6,19,0.00
2013-12-7,22,11,3,8,0,-8,84,62,42,29.66,29.38,14,5,17,0.00
2013-12-8,18,7,-4,8,-5,-17,86,58,30,29.56,29.34,21,8,23,0.00
2013-12-9,14,2,-8,-11,-17,-22,55,40,23,29.82,29.55,21,10,28,0.00
2013-12-10,38,17,2,8,-2,-14,60,42,26,29.85,29.75,19,9,28,0.00
2013-12-11,35,22,11,5,-1,-9,62,39,21,30.03,29.85,18,8,24,0.00
2013-12-12,44,29,12,-2,-7,-18,30,21,11,30.03,29.79,17,10,22,0.00
2013-12-13,47,28,13,6,0,-9,60,34,11,29.81,29.66,15,6,22,0.00
2013-12-14,34,20,8,13,2,-8,73,48,28,29.96,29.81,21,6,24,0.00
2013-12-15,46,31,23,14,9,2,52,39,23,29.99,29.91,30,12,36,0.00
2013-12-16,50,36,25,13,6,-2,42,28,16,30.03,29.93,27,9,30,0.00
2013-12-17,52,35,27,8,3,-3,37,26,15,30.10,29.96,21,8,24,0.00
2013-12-18,54,39,31,9,0,-5,38,21,10,29.95,29.64,17,8,18,0.00
2013-12-19,48,33,23,17,12,6,68,42,20,29.63,29.48,17,6,30,0.00
2013-12-20,37,25,14,20,14,6,80,63,46,29.53,29.44,17,6,21,0.00
2013-12-21,31,18,13,8,4,-1,73,55,37,29.44,29.36,14,7,18,0.00
2013-12-22,30,20,14,0,-2,-7,51,38,25,29.80,29.65,21,10,25,0.00
2013-12-23,34,23,14,13,6,0,64,49,31,29.96,29.79,32,16,35,0.00
2013-12-24,39,24,7,18,9,-10,74,53,36,29.93,29.79,27,10,28,0.00
2013-12-25,40,20,5,3,-8,-24,47,29,17,30.01,29.91,24,6,26,0.00
2013-12-26,50,27,15,11,1,-13,65,35,16,30.02,29.95,19,6,23,0.00
2013-12-27,48,29,14,19,12,3,72,51,28,30.03,29.88,11,4,13,0.00
2013-12-28,48,30,17,18,14,9,92,53,26,29.88,29.67,19,7,19,0.00
2013-12-29,29,17,7,21,7,-3,91,68,39,29.82,29.72,23,6,25,0.00
2013-12-30,44,26,18,8,3,-7,48,37,18,29.91,29.73,34,10,40,0.00
2013-12-31,40,28,20,16,9,1,62,44,34,29.88,29.75,30,13,42,0.00
2014-1-1,30,24,15,20,6,-9,84,48,28,29.91,29.70,25,12,31,0.00
2014-1-2,45,29,15,9,-4,-16,51,26,12,29.95,29.84,29,8,29,0.00